createdAt,value
2023-05-18T00:03:04.821Z,6.4
2023-05-18T00:13:05.847Z,6.2
2023-05-18T00:23:07.331Z,6.1
2023-05-18T00:33:09.331Z,6
2023-05-18T00:43:10.324Z,6
2023-05-18T01:03:13.135Z,5.7
2023-05-18T01:13:14.926Z,5.5
2023-05-18T01:23:16.132Z,5.4
2023-05-18T01:33:17.407Z,5.3
2023-05-18T01:53:20.515Z,5.1
2023-05-18T02:03:22.197Z,5.1
2023-05-18T02:13:23.806Z,4.9
2023-05-18T02:23:25.179Z,4.8
2023-05-18T02:33:27.095Z,4.8
2023-05-18T02:43:29.123Z,4.7
2023-05-18T02:53:30.720Z,4.6
2023-05-18T03:03:32.609Z,4.6
2023-05-18T03:13:33.654Z,4.5
2023-05-18T03:23:34.980Z,4.5
2023-05-18T03:33:36.954Z,4.4
2023-05-18T03:43:38.956Z,4.3
2023-05-18T03:53:40.703Z,4.3
2023-05-18T04:03:42.183Z,4.3
2023-05-18T04:13:44.068Z,4.3
2023-05-18T04:23:45.297Z,4.4
2023-05-18T04:33:46.494Z,4.7
2023-05-18T04:43:47.578Z,4.8
2023-05-18T04:53:48.825Z,5
2023-05-18T05:03:50.226Z,5.5
2023-05-18T05:13:51.504Z,5.7
2023-05-18T05:23:53.177Z,6.1
2023-05-18T05:33:54.896Z,6.1
2023-05-18T05:36:33.262Z,6.1
2023-05-18T05:44:05.161Z,6.5
2023-05-18T05:54:07.883Z,6.9
2023-05-18T06:04:08.729Z,7.2
2023-05-18T06:14:10.372Z,7.4
2023-05-18T06:24:11.877Z,7.6
2023-05-18T06:34:13.428Z,8
2023-05-18T06:44:14.961Z,8.3
2023-05-18T06:54:16.578Z,8.6
2023-05-18T07:04:17.746Z,9
2023-05-18T07:14:18.735Z,9.4
2023-05-18T07:24:20.626Z,9.8
2023-05-18T07:34:22.263Z,9.9
2023-05-18T07:44:23.358Z,10.1
2023-05-18T07:54:25.382Z,10.6
2023-05-18T08:04:27.209Z,10.8
2023-05-18T08:14:28.917Z,11
2023-05-18T08:34:32.372Z,11.4
2023-05-18T08:44:34.049Z,11.7
2023-05-18T08:54:35.519Z,11.8
2023-05-18T09:04:36.977Z,12.2
2023-05-18T09:14:38.870Z,12.1
2023-05-18T09:24:40.289Z,12
2023-05-18T09:34:41.663Z,12.3
2023-05-18T09:44:43.377Z,12.4
2023-05-18T09:54:44.599Z,12.1
2023-05-18T10:04:46.244Z,12.7
2023-05-18T10:14:47.828Z,12.9
2023-05-18T10:24:49.358Z,13.3
2023-05-18T10:34:50.877Z,13.2
2023-05-18T10:44:52.497Z,14
2023-05-18T10:54:54.036Z,14
2023-05-18T11:04:55.296Z,14
2023-05-18T11:14:57.052Z,14.1
2023-05-18T11:24:58.914Z,14.6
2023-05-18T11:35:00.473Z,14.3
2023-05-18T11:45:01.606Z,15
2023-05-18T11:55:02.891Z,14.8
2023-05-18T12:05:04.330Z,15.4
2023-05-18T12:25:06.830Z,15.6
2023-05-18T12:35:08.730Z,15.3
2023-05-18T12:45:11.342Z,16.1
2023-05-18T12:55:11.508Z,16
2023-05-18T13:05:12.625Z,16
2023-05-18T13:15:13.813Z,16.5
2023-05-18T13:25:14.975Z,16.4
2023-05-18T13:35:16.408Z,16.5
2023-05-18T13:45:17.596Z,16.8
2023-05-18T13:55:18.863Z,16.6
2023-05-18T14:05:20.388Z,16.6
2023-05-18T14:15:22.000Z,16.9
2023-05-18T14:25:23.391Z,17.3
2023-05-18T14:35:25.072Z,17.3
2023-05-18T14:45:26.198Z,17.2
2023-05-18T14:55:28.174Z,17
2023-05-18T15:15:30.926Z,17.2
2023-05-18T15:25:32.706Z,17.1
2023-05-18T15:35:34.596Z,16.8
2023-05-18T15:45:36.669Z,17
2023-05-18T15:55:38.568Z,16.8
2023-05-18T16:05:40.541Z,16.6
2023-05-18T16:15:41.694Z,16.6
2023-05-18T16:25:43.454Z,16.5
2023-05-18T16:35:44.966Z,16.2
2023-05-18T16:45:46.660Z,16.4
2023-05-18T16:55:47.916Z,16.1
2023-05-18T17:05:48.996Z,16.1
2023-05-18T17:15:50.864Z,16.1
2023-05-18T17:25:55.063Z,15.9
2023-05-18T17:35:53.836Z,15.9
2023-05-18T17:45:55.292Z,15.7
2023-05-18T17:55:56.681Z,15.6
2023-05-18T18:05:57.711Z,15.6
2023-05-18T18:15:59.448Z,15.4
2023-05-18T18:26:00.516Z,15.1
2023-05-18T18:36:02.372Z,14.7
2023-05-18T18:46:04.393Z,14.3
2023-05-18T18:56:06.015Z,14
2023-05-18T19:16:08.686Z,13.5
2023-05-18T19:26:09.845Z,13.2
2023-05-18T19:36:11.035Z,13
2023-05-18T19:56:14.157Z,12.5
2023-05-18T20:06:15.759Z,12.3
2023-05-18T20:16:17.494Z,12.1
2023-05-18T20:26:18.861Z,11.9
2023-05-18T20:36:20.726Z,11.8
2023-05-18T20:46:22.209Z,11.6
2023-05-18T20:56:23.603Z,11.4
2023-05-18T21:06:25.355Z,11.3
2023-05-18T21:16:26.478Z,11.1
2023-05-18T21:26:28.281Z,11
2023-05-18T21:36:29.379Z,10.9
2023-05-18T21:46:30.731Z,10.8
2023-05-18T22:06:33.355Z,10.4
2023-05-18T22:16:35.064Z,10.2
2023-05-18T22:26:36.117Z,10.2
2023-05-18T22:36:37.260Z,10.1
2023-05-18T22:46:38.542Z,10
2023-05-18T22:56:39.957Z,9.7
2023-05-18T23:06:42.017Z,9.5
2023-05-18T23:16:43.797Z,9.4
2023-05-18T23:26:45.123Z,9.2
2023-05-18T23:36:46.600Z,8.9
2023-05-18T23:46:47.990Z,8.8
2023-05-18T23:56:49.158Z,8.6
